Time;durP1;ratioP1;P1;durP2;ratioP2;P2;SDS_P1;SDS_P2;PMS_P1;PMS_P2;Temp;Humidity;BMP_temperature;BMP_pressure;BME280_temperature;BME280_humidity;BME280_pressure;Samples;Min_cycle;Max_cycle;Signal;HPM_P1;HPM_P2
2023/12/02 00:02:04;;;;;;;39.90;16.33;;;;;;;;;;10421678;22;20041;-94
2023/12/02 00:06:10;;;;;;;41.55;16.35;;;;;;;;;;10448961;22;20109;-94
2023/12/02 00:10:13;;;;;;;65.03;24.33;;;;;;;;;;10448230;22;20064;-93
2023/12/02 00:14:16;;;;;;;65.40;20.60;;;;;;;;;;10447930;22;20007;-94
2023/12/02 00:18:20;;;;;;;64.40;26.85;;;;;;;;;;10448083;22;20056;-93
2023/12/02 00:22:25;;;;;;;53.25;22.13;;;;;;;;;;10419246;22;20039;-93
2023/12/02 00:26:28;;;;;;;56.35;18.75;;;;;;;;;;10446277;22;20015;-94
2023/12/02 00:30:31;;;;;;;31.98;14.88;;;;;;;;;;10417633;22;20031;-93
2023/12/02 00:34:34;;;;;;;43.65;16.55;;;;;;;;;;10444432;22;20039;-93
2023/12/02 00:38:42;;;;;;;128.35;36.67;;;;;;;;;;10445402;22;20021;-94
2023/12/02 00:42:44;;;;;;;35.15;16.42;;;;;;;;;;10445319;22;20038;-94
2023/12/02 00:46:48;;;;;;;31.00;13.05;;;;;;;;;;10445020;22;20015;-93
2023/12/02 00:50:52;;;;;;;58.05;20.67;;;;;;;;;;10445063;22;20042;-93
2023/12/02 00:54:57;;;;;;;30.25;11.23;;;;;;;;;;10449331;22;20022;-93
2023/12/02 00:59:00;;;;;;;46.08;17.27;;;;;;;;;;10446177;22;20030;-94
2023/12/02 01:03:04;;;;;;;37.17;14.07;;;;;;;;;;10446282;22;20022;-94
2023/12/02 01:07:07;;;;;;;100.32;32.90;;;;;;;;;;10446953;22;20019;-94
2023/12/02 01:11:12;;;;;;;66.00;23.98;;;;;;;;;;10419586;22;20078;-93
2023/12/02 01:15:15;;;;;;;60.55;24.67;;;;;;;;;;10446774;22;20019;-94
2023/12/02 01:19:18;;;;;;;33.58;15.77;;;;;;;;;;10417294;22;20022;-93
2023/12/02 01:23:22;;;;;;;38.80;15.05;;;;;;;;;;10444704;22;20015;-93
2023/12/02 01:27:26;;;;;;;35.88;14.57;;;;;;;;;;10444486;22;20091;-93
2023/12/02 01:31:29;;;;;;;31.38;12.70;;;;;;;;;;10443643;22;20026;-93
2023/12/02 01:35:32;;;;;;;32.90;14.75;;;;;;;;;;10444010;22;20011;-92
2023/12/02 01:39:36;;;;;;;34.30;15.15;;;;;;;;;;10443951;22;20019;-93
2023/12/02 01:43:41;;;;;;;33.80;16.50;;;;;;;;;;10416964;22;20459;-93
2023/12/02 01:47:44;;;;;;;38.63;15.48;;;;;;;;;;10444129;22;20020;-93
2023/12/02 01:51:47;;;;;;;51.30;21.63;;;;;;;;;;10416795;22;20103;-94
2023/12/02 01:55:54;;;;;;;50.38;19.20;;;;;;;;;;10444139;22;20027;-94
2023/12/02 01:59:59;;;;;;;46.35;19.00;;;;;;;;;;10444121;22;20098;-94
2023/12/02 02:04:02;;;;;;;44.00;17.70;;;;;;;;;;10417666;22;20050;-92
2023/12/02 02:08:08;;;;;;;37.85;18.10;;;;;;;;;;10462844;22;20026;-92
2023/12/02 02:12:11;;;;;;;38.45;19.27;;;;;;;;;;10452657;22;20371;-92
2023/12/02 02:16:17;;;;;;;28.80;12.65;;;;;;;;;;10426851;22;20309;-92
2023/12/02 02:20:21;;;;;;;32.72;16.23;;;;;;;;;;10416847;22;20158;-93
2023/12/02 02:24:26;;;;;;;31.23;12.45;;;;;;;;;;10443909;22;20027;-92
2023/12/02 02:28:31;;;;;;;30.65;13.35;;;;;;;;;;10444526;22;20316;-92
2023/12/02 02:32:34;;;;;;;35.97;12.88;;;;;;;;;;10391481;22;20430;-92
2023/12/02 02:36:37;;;;;;;28.00;12.55;;;;;;;;;;10392693;22;20027;-92
2023/12/02 02:40:41;;;;;;;31.23;13.30;;;;;;;;;;10392577;22;20646;-93
2023/12/02 02:44:44;;;;;;;35.58;15.10;;;;;;;;;;10395100;22;20073;-93
2023/12/02 02:48:48;;;;;;;25.60;12.23;;;;;;;;;;10399577;22;20020;-93
2023/12/02 02:52:52;;;;;;;27.58;12.88;;;;;;;;;;10403257;22;20029;-93
2023/12/02 02:56:58;;;;;;;31.33;14.05;;;;;;;;;;10404565;22;20053;-93
2023/12/02 03:01:02;;;;;;;29.92;13.38;;;;;;;;;;10401834;22;20020;-93
2023/12/02 03:05:07;;;;;;;33.85;14.15;;;;;;;;;;10403252;22;20027;-93
2023/12/02 03:09:14;;;;;;;29.65;13.27;;;;;;;;;;10402285;22;20521;-93
2023/12/02 03:13:20;;;;;;;32.03;15.10;;;;;;;;;;10403734;22;20026;-92
2023/12/02 03:17:24;;;;;;;24.52;9.77;;;;;;;;;;10404159;22;20340;-93
2023/12/02 03:21:27;;;;;;;36.97;13.88;;;;;;;;;;10402670;22;20031;-93
2023/12/02 03:25:32;;;;;;;43.67;17.08;;;;;;;;;;10400240;22;20019;-93
2023/12/02 03:29:37;;;;;;;36.15;15.40;;;;;;;;;;10402553;22;20038;-93
2023/12/02 03:33:41;;;;;;;37.78;15.30;;;;;;;;;;10447190;22;20038;-93
2023/12/02 03:37:45;;;;;;;38.65;14.50;;;;;;;;;;10455001;22;20019;-93
2023/12/02 03:41:51;;;;;;;37.53;16.00;;;;;;;;;;10456589;22;20196;-93
2023/12/02 03:45:59;;;;;;;35.50;17.38;;;;;;;;;;10406965;22;20019;-93
2023/12/02 03:50:04;;;;;;;51.28;19.33;;;;;;;;;;10455383;22;20020;-92
2023/12/02 03:54:11;;;;;;;32.60;13.55;;;;;;;;;;10460561;22;20015;-93
2023/12/02 03:58:15;;;;;;;35.10;14.30;;;;;;;;;;10476966;22;20015;-94
2023/12/02 04:02:20;;;;;;;12.35;8.73;;;;;;;;;;10459758;22;20141;-94
2023/12/02 04:06:24;;;;;;;53.97;23.25;;;;;;;;;;10425563;22;20023;-94
2023/12/02 04:10:31;;;;;;;52.65;22.92;;;;;;;;;;10453781;22;20023;-92
2023/12/02 04:14:34;;;;;;;47.35;20.52;;;;;;;;;;10453859;22;20403;-93
2023/12/02 04:18:40;;;;;;;52.17;21.98;;;;;;;;;;10454033;22;20015;-92
2023/12/02 04:22:45;;;;;;;50.25;19.98;;;;;;;;;;10437309;22;20022;-92
2023/12/02 04:26:49;;;;;;;59.50;23.23;;;;;;;;;;10478531;22;20017;-92
2023/12/02 04:30:52;;;;;;;72.50;27.48;;;;;;;;;;10452643;22;20138;-92
2023/12/02 04:34:57;;;;;;;26.98;13.38;;;;;;;;;;10453307;22;20445;-92
2023/12/02 04:39:00;;;;;;;58.72;24.10;;;;;;;;;;10449998;22;20019;-92
2023/12/02 04:43:04;;;;;;;57.13;21.80;;;;;;;;;;10422869;22;20023;-93
2023/12/02 04:47:13;;;;;;;60.17;25.58;;;;;;;;;;10423463;22;20019;-93
2023/12/02 04:51:20;;;;;;;58.75;23.33;;;;;;;;;;10468903;22;20069;-92
2023/12/02 04:55:25;;;;;;;24.23;13.52;;;;;;;;;;10469293;22;20015;-92
2023/12/02 04:59:28;;;;;;;49.30;21.58;;;;;;;;;;10468208;22;20027;-92
2023/12/02 05:03:35;;;;;;;55.78;21.05;;;;;;;;;;10417721;22;20039;-92
2023/12/02 05:07:44;;;;;;;67.13;23.58;;;;;;;;;;10444527;22;20015;-92
2023/12/02 05:11:53;;;;;;;46.38;19.90;;;;;;;;;;10445078;22;20023;-92
2023/12/02 05:15:57;;;;;;;47.95;20.55;;;;;;;;;;10462031;22;20015;-92
2023/12/02 05:20:01;;;;;;;54.35;20.83;;;;;;;;;;10450913;22;20046;-94
2023/12/02 05:24:06;;;;;;;107.68;29.13;;;;;;;;;;10415437;22;20106;-93
2023/12/02 05:28:14;;;;;;;197.23;55.83;;;;;;;;;;10443667;22;20099;-93
2023/12/02 05:32:17;;;;;;;63.40;23.40;;;;;;;;;;10444826;22;20077;-92
2023/12/02 05:36:20;;;;;;;78.32;25.67;;;;;;;;;;10442419;22;20023;-92
2023/12/02 05:40:25;;;;;;;41.65;17.65;;;;;;;;;;10443203;22;20019;-91
2023/12/02 05:44:31;;;;;;;15.60;8.65;;;;;;;;;;10443188;22;20420;-92
2023/12/02 05:48:37;;;;;;;40.75;14.68;;;;;;;;;;10463143;22;20390;-93
2023/12/02 05:52:43;;;;;;;34.65;14.50;;;;;;;;;;10462398;22;20050;-92
2023/12/02 05:56:47;;;;;;;91.28;27.30;;;;;;;;;;10442364;22;20022;-92
2023/12/02 06:00:57;;;;;;;47.22;18.13;;;;;;;;;;10443888;22;20027;-93
2023/12/02 06:05:03;;;;;;;36.28;15.30;;;;;;;;;;10414787;22;20019;-93
2023/12/02 06:09:07;;;;;;;44.53;17.30;;;;;;;;;;10463837;22;20022;-92
2023/12/02 06:13:15;;;;;;;57.08;17.80;;;;;;;;;;10462944;22;20123;-92
2023/12/02 06:17:19;;;;;;;57.03;20.33;;;;;;;;;;10444690;22;20054;-93
2023/12/02 06:21:22;;;;;;;34.50;14.07;;;;;;;;;;10444624;22;20325;-93
2023/12/02 06:25:32;;;;;;;71.07;30.88;;;;;;;;;;10444899;22;20019;-92
2023/12/02 06:29:42;;;;;;;55.17;22.42;;;;;;;;;;10444635;22;20011;-93
2023/12/02 06:33:46;;;;;;;61.60;22.05;;;;;;;;;;10444812;22;20019;-93
2023/12/02 06:37:50;;;;;;;57.35;23.00;;;;;;;;;;10443536;22;20023;-93
2023/12/02 06:41:56;;;;;;;57.88;23.15;;;;;;;;;;10443710;22;20023;-93
2023/12/02 06:46:00;;;;;;;41.42;17.67;;;;;;;;;;10416502;22;20447;-93
2023/12/02 06:50:03;;;;;;;36.65;17.75;;;;;;;;;;10445492;22;20336;-93
2023/12/02 06:54:07;;;;;;;36.75;14.70;;;;;;;;;;10445518;22;20056;-92
2023/12/02 06:58:10;;;;;;;39.47;16.92;;;;;;;;;;10443585;22;20019;-91
2023/12/02 07:02:15;;;;;;;18.67;8.25;;;;;;;;;;10443266;22;20401;-92
2023/12/02 07:06:20;;;;;;;17.45;6.68;;;;;;;;;;10417557;22;20016;-92
2023/12/02 07:10:23;;;;;;;5.72;3.15;;;;;;;;;;10444891;22;20023;-92
2023/12/02 07:14:29;;;;;;;24.70;10.02;;;;;;;;;;10417525;22;20015;-92
2023/12/02 07:18:37;;;;;;;15.52;8.60;;;;;;;;;;10445194;22;20019;-92
2023/12/02 07:22:42;;;;;;;23.83;11.60;;;;;;;;;;10442944;22;20486;-93
2023/12/02 07:26:47;;;;;;;34.17;13.98;;;;;;;;;;10459491;22;20015;-92
2023/12/02 07:30:50;;;;;;;52.85;20.45;;;;;;;;;;10443813;22;20025;-90
2023/12/02 07:34:54;;;;;;;19.48;8.02;;;;;;;;;;10448820;22;20354;-93
2023/12/02 07:38:59;;;;;;;43.97;17.55;;;;;;;;;;10454464;22;20351;-93
2023/12/02 07:43:03;;;;;;;36.60;17.10;;;;;;;;;;10422032;22;20045;-93
2023/12/02 07:47:07;;;;;;;24.35;9.90;;;;;;;;;;10446073;22;20312;-93
2023/12/02 07:51:13;;;;;;;29.35;13.43;;;;;;;;;;10441820;22;20021;-93
2023/12/02 07:55:28;;;;;;;40.17;15.23;;;;;;;;;;10443089;22;20026;-91
2023/12/02 07:59:37;;;;;;;16.45;7.50;;;;;;;;;;10421966;22;20034;-94
2023/12/02 08:04:04;;;;;;;32.60;15.98;;;;;;;;;;10423456;22;20037;-93
2023/12/02 08:08:15;;;;;;;15.02;6.75;;;;;;;;;;10473058;22;20023;-93
2023/12/02 08:12:20;;;;;;;14.98;8.63;;;;;;;;;;10422350;22;20019;-93
2023/12/02 08:16:24;;;;;;;29.25;10.82;;;;;;;;;;10428002;22;20019;-94
2023/12/02 08:20:27;;;;;;;26.52;11.65;;;;;;;;;;10449600;22;20038;-94
2023/12/02 08:24:33;;;;;;;45.03;20.48;;;;;;;;;;10447069;22;20045;-94
2023/12/02 08:28:36;;;;;;;14.48;7.88;;;;;;;;;;10463171;22;20011;-94
2023/12/02 08:32:40;;;;;;;35.88;13.65;;;;;;;;;;10448181;22;20054;-95
2023/12/02 08:36:45;;;;;;;41.22;18.73;;;;;;;;;;10419225;22;20020;-94
2023/12/02 08:40:52;;;;;;;52.85;21.33;;;;;;;;;;10446499;22;20035;-95
2023/12/02 08:44:54;;;;;;;38.97;15.65;;;;;;;;;;10418874;22;20317;-94
2023/12/02 08:48:58;;;;;;;28.45;13.05;;;;;;;;;;10419587;22;20317;-93
2023/12/02 08:53:01;;;;;;;28.20;12.88;;;;;;;;;;10443906;22;20016;-92
2023/12/02 08:57:06;;;;;;;16.25;9.13;;;;;;;;;;10451591;22;20019;-96
2023/12/02 09:01:13;;;;;;;42.33;17.08;;;;;;;;;;10470406;22;20015;-94
2023/12/02 09:05:23;;;;;;;58.78;25.70;;;;;;;;;;10451654;22;20026;-89
2023/12/02 09:09:29;;;;;;;17.08;9.82;;;;;;;;;;10466592;22;20019;-89
2023/12/02 09:13:43;;;;;;;42.13;19.58;;;;;;;;;;10422697;22;20090;-89
2023/12/02 09:18:28;;;;;;;38.50;16.27;;;;;;;;;;10466767;22;20022;-89
2023/12/02 09:22:49;;;;;;;47.45;17.75;;;;;;;;;;10397333;22;20015;-90
2023/12/02 09:27:05;;;;;;;35.13;16.85;;;;;;;;;;10422890;22;20019;-89
2023/12/02 09:31:22;;;;;;;54.92;19.75;;;;;;;;;;10458666;22;20094;-94
2023/12/02 09:35:45;;;;;;;42.20;15.32;;;;;;;;;;10433544;22;20019;-95
2023/12/02 09:40:26;;;;;;;53.63;24.48;;;;;;;;;;10436110;22;20011;-93
2023/12/02 09:44:49;;;;;;;53.47;19.83;;;;;;;;;;10428261;22;20019;-90
2023/12/02 09:49:17;;;;;;;46.00;18.92;;;;;;;;;;10456785;22;20020;-93
2023/12/02 09:53:44;;;;;;;24.87;11.43;;;;;;;;;;10455320;22;20094;-93
2023/12/02 09:58:11;;;;;;;26.75;12.38;;;;;;;;;;10427279;22;20015;-93
2023/12/02 10:02:27;;;;;;;38.97;13.75;;;;;;;;;;10453113;22;20018;-93
2023/12/02 10:06:47;;;;;;;20.33;9.60;;;;;;;;;;10447290;22;20041;-93
2023/12/02 10:11:03;;;;;;;27.23;13.50;;;;;;;;;;10446951;22;20012;-93
2023/12/02 10:15:10;;;;;;;48.17;22.15;;;;;;;;;;10447496;22;20076;-93
2023/12/02 10:19:18;;;;;;;47.08;21.00;;;;;;;;;;10447850;22;20034;-94
2023/12/02 10:23:35;;;;;;;31.98;13.88;;;;;;;;;;10448560;22;20030;-92
2023/12/02 10:27:42;;;;;;;30.33;14.40;;;;;;;;;;10447573;22;20042;-93
2023/12/02 10:31:54;;;;;;;28.60;13.85;;;;;;;;;;10444612;22;20054;-92
2023/12/02 10:36:03;;;;;;;29.85;13.02;;;;;;;;;;10462711;22;20014;-88
2023/12/02 10:40:10;;;;;;;48.50;18.60;;;;;;;;;;10460701;22;20046;-88
2023/12/02 10:44:16;;;;;;;22.92;10.15;;;;;;;;;;10415111;22;20026;-88
2023/12/02 10:48:25;;;;;;;41.03;17.00;;;;;;;;;;10462006;22;20019;-88
2023/12/02 10:52:29;;;;;;;44.00;17.05;;;;;;;;;;10460276;22;20098;-88
2023/12/02 10:56:36;;;;;;;31.98;14.23;;;;;;;;;;10443490;22;20019;-92
2023/12/02 11:00:43;;;;;;;35.42;12.70;;;;;;;;;;10464185;22;20048;-92
2023/12/02 11:04:52;;;;;;;20.55;10.10;;;;;;;;;;10463161;22;20015;-93
2023/12/02 11:08:58;;;;;;;28.58;15.30;;;;;;;;;;10445846;22;20023;-93
2023/12/02 11:13:06;;;;;;;30.27;14.07;;;;;;;;;;10470838;22;20019;-92
2023/12/02 11:17:17;;;;;;;29.35;13.35;;;;;;;;;;10466632;22;20148;-93
2023/12/02 11:21:31;;;;;;;29.77;9.55;;;;;;;;;;10447681;22;20037;-93
2023/12/02 11:25:47;;;;;;;46.72;19.88;;;;;;;;;;10448020;22;20019;-94
2023/12/02 11:30:07;;;;;;;31.73;15.32;;;;;;;;;;10465718;22;20049;-93
2023/12/02 11:34:28;;;;;;;45.20;20.35;;;;;;;;;;10422724;22;20049;-94
2023/12/02 11:38:34;;;;;;;52.97;23.00;;;;;;;;;;10420484;22;20069;-94
2023/12/02 11:42:48;;;;;;;32.22;15.52;;;;;;;;;;10448735;22;20661;-92
2023/12/02 11:47:23;;;;;;;126.63;52.25;;;;;;;;;;10418306;22;20012;-93
2023/12/02 11:51:49;;;;;;;23.52;9.95;;;;;;;;;;10446738;22;20015;-95
2023/12/02 11:56:05;;;;;;;48.03;23.35;;;;;;;;;;10417391;22;20086;-93
2023/12/02 12:00:37;;;;;;;33.83;15.52;;;;;;;;;;10462194;22;20042;-93
2023/12/02 12:05:21;;;;;;;38.47;16.90;;;;;;;;;;10445536;22;20022;-94
2023/12/02 12:09:35;;;;;;;39.58;15.68;;;;;;;;;;10444375;22;20023;-93
2023/12/02 12:13:39;;;;;;;18.48;7.60;;;;;;;;;;10418427;22;20051;-93
2023/12/02 12:17:44;;;;;;;24.17;12.23;;;;;;;;;;10463921;22;20022;-94
2023/12/02 12:21:50;;;;;;;29.77;13.65;;;;;;;;;;10419633;22;20078;-94
2023/12/02 12:25:56;;;;;;;32.97;14.20;;;;;;;;;;10451546;22;20072;-94
2023/12/02 12:30:05;;;;;;;25.90;12.50;;;;;;;;;;10451294;22;20343;-94
2023/12/02 12:34:12;;;;;;;32.25;15.75;;;;;;;;;;10426070;22;20324;-94
2023/12/02 12:38:18;;;;;;;15.02;7.40;;;;;;;;;;10447192;22;20015;-93
2023/12/02 12:42:22;;;;;;;45.53;17.80;;;;;;;;;;10445545;22;20031;-91
2023/12/02 12:46:28;;;;;;;15.43;8.68;;;;;;;;;;10441217;22;20022;-89
2023/12/02 12:50:33;;;;;;;62.63;24.13;;;;;;;;;;10413416;22;20511;-89
2023/12/02 12:54:41;;;;;;;30.02;11.50;;;;;;;;;;10441674;22;20043;-89
2023/12/02 12:58:55;;;;;;;52.28;18.88;;;;;;;;;;10432264;22;20019;-89
2023/12/02 13:03:31;;;;;;;177.50;56.97;;;;;;;;;;10444294;22;20023;-90
2023/12/02 13:07:42;;;;;;;96.43;31.42;;;;;;;;;;10465184;22;20015;-92
2023/12/02 13:12:04;;;;;;;158.98;50.97;;;;;;;;;;10458957;22;20026;-89
2023/12/02 13:16:11;;;;;;;79.75;28.25;;;;;;;;;;10441947;22;20026;-90
2023/12/02 13:20:18;;;;;;;129.80;43.78;;;;;;;;;;10458502;22;20019;-90
2023/12/02 13:24:22;;;;;;;49.20;21.02;;;;;;;;;;10441697;22;20023;-90
2023/12/02 13:28:32;;;;;;;26.83;11.95;;;;;;;;;;10444628;22;20045;-89
2023/12/02 13:32:50;;;;;;;64.20;23.55;;;;;;;;;;10418224;22;20112;-90
2023/12/02 13:36:55;;;;;;;19.15;9.10;;;;;;;;;;10468650;22;20026;-90
2023/12/02 13:41:06;;;;;;;41.42;18.33;;;;;;;;;;10441995;22;20041;-90
2023/12/02 13:45:17;;;;;;;19.15;8.60;;;;;;;;;;10459471;22;20022;-89
2023/12/02 13:49:30;;;;;;;39.38;16.27;;;;;;;;;;10461659;22;20086;-93
2023/12/02 13:54:04;;;;;;;52.97;19.63;;;;;;;;;;10464646;22;20465;-94
2023/12/02 13:58:31;;;;;;;36.53;16.33;;;;;;;;;;10450440;22;20076;-94
2023/12/02 14:03:01;;;;;;;25.42;11.63;;;;;;;;;;10424991;22;20462;-95
2023/12/02 14:07:22;;;;;;;56.15;21.02;;;;;;;;;;10418285;22;20019;-95
2023/12/02 14:12:10;;;;;;;26.33;12.15;;;;;;;;;;10440191;22;20015;-93
2023/12/02 14:16:45;;;;;;;31.50;14.15;;;;;;;;;;10445085;22;20023;-92
2023/12/02 14:21:06;;;;;;;80.72;27.85;;;;;;;;;;10415725;22;20034;-90
2023/12/02 14:30:42;;;;;;;85.63;33.28;;;;;;;;;;10412190;22;20046;-89
2023/12/02 14:35:44;;;;;;;58.30;24.35;;;;;;;;;;10435335;22;20023;-89
2023/12/02 14:40:27;;;;;;;18.00;8.40;;;;;;;;;;10460541;22;20309;-89
2023/12/02 14:44:35;;;;;;;35.95;15.18;;;;;;;;;;10423261;22;20015;-89
2023/12/02 14:48:39;;;;;;;24.92;12.68;;;;;;;;;;10447911;22;20046;-89
2023/12/02 14:52:44;;;;;;;23.25;12.23;;;;;;;;;;10446113;22;20044;-89
2023/12/02 14:56:49;;;;;;;30.85;15.90;;;;;;;;;;10446083;22;20015;-90
2023/12/02 15:01:03;;;;;;;61.15;25.90;;;;;;;;;;10445816;22;20026;-89
2023/12/02 15:05:08;;;;;;;40.20;19.17;;;;;;;;;;10464414;22;20039;-88
2023/12/02 15:09:22;;;;;;;75.45;26.95;;;;;;;;;;10474418;22;20019;-88
2023/12/02 15:13:27;;;;;;;71.57;28.63;;;;;;;;;;10468249;22;20505;-89
2023/12/02 15:17:32;;;;;;;90.88;30.33;;;;;;;;;;10443331;22;20023;-88
2023/12/02 15:21:55;;;;;;;82.50;28.90;;;;;;;;;;10441454;22;20015;-89
2023/12/02 15:26:00;;;;;;;61.38;23.65;;;;;;;;;;10412345;22;20536;-89
2023/12/02 15:30:04;;;;;;;48.67;21.30;;;;;;;;;;10440752;22;20390;-88
2023/12/02 15:34:09;;;;;;;59.63;24.08;;;;;;;;;;10439328;22;20015;-88
2023/12/02 15:38:13;;;;;;;22.40;11.60;;;;;;;;;;10440099;22;20019;-88
2023/12/02 15:42:17;;;;;;;36.35;15.80;;;;;;;;;;10440001;22;20016;-89
2023/12/02 15:46:21;;;;;;;37.55;15.25;;;;;;;;;;10412757;22;20094;-89
2023/12/02 15:50:26;;;;;;;17.23;8.57;;;;;;;;;;10440420;22;20451;-88
2023/12/02 15:54:33;;;;;;;50.80;18.80;;;;;;;;;;10445972;22;20058;-88
2023/12/02 15:58:36;;;;;;;88.60;28.05;;;;;;;;;;10440652;22;20024;-88
2023/12/02 16:02:43;;;;;;;26.73;11.93;;;;;;;;;;10412263;22;20107;-89
2023/12/02 16:06:48;;;;;;;29.35;14.10;;;;;;;;;;10445984;22;20025;-88
2023/12/02 16:11:01;;;;;;;40.10;16.67;;;;;;;;;;10457144;22;20019;-88
2023/12/02 16:15:05;;;;;;;54.38;20.90;;;;;;;;;;10439822;22;20019;-88
2023/12/02 16:19:08;;;;;;;27.73;12.57;;;;;;;;;;10439327;22;20038;-89
2023/12/02 16:23:15;;;;;;;57.78;21.95;;;;;;;;;;10443058;22;20015;-88
2023/12/02 16:27:19;;;;;;;44.28;13.77;;;;;;;;;;10441213;22;20599;-87
2023/12/02 16:31:26;;;;;;;51.92;18.90;;;;;;;;;;10442459;22;20019;-88
2023/12/02 16:35:29;;;;;;;42.80;15.48;;;;;;;;;;10459536;22;20045;-88
2023/12/02 16:39:37;;;;;;;47.95;17.08;;;;;;;;;;10454980;22;20064;-93
2023/12/02 16:43:41;;;;;;;54.83;19.02;;;;;;;;;;10432585;22;20068;-93
2023/12/02 16:47:46;;;;;;;49.35;18.40;;;;;;;;;;10395363;22;20022;-89
2023/12/02 16:51:50;;;;;;;44.03;16.58;;;;;;;;;;10417691;22;20446;-89
2023/12/02 16:55:57;;;;;;;43.38;16.42;;;;;;;;;;10423681;22;20015;-89
2023/12/02 17:00:03;;;;;;;63.15;20.02;;;;;;;;;;10443075;22;20023;-89
2023/12/02 17:04:06;;;;;;;11.27;5.22;;;;;;;;;;10462287;22;20019;-89
2023/12/02 17:08:20;;;;;;;25.90;11.98;;;;;;;;;;10456446;22;20037;-90
2023/12/02 17:12:28;;;;;;;44.28;15.50;;;;;;;;;;10432791;22;20016;-90
2023/12/02 17:16:56;;;;;;;35.70;13.13;;;;;;;;;;10457061;22;20019;-90
2023/12/02 17:21:03;;;;;;;28.98;11.85;;;;;;;;;;10468973;22;20023;-89
2023/12/02 17:25:47;;;;;;;41.20;15.75;;;;;;;;;;10469214;22;20022;-88
2023/12/02 17:29:53;;;;;;;40.35;15.23;;;;;;;;;;10450524;22;20026;-89
2023/12/02 17:33:59;;;;;;;47.22;16.65;;;;;;;;;;10452271;22;20077;-88
2023/12/02 17:38:05;;;;;;;25.23;10.07;;;;;;;;;;10467434;22;20015;-89
2023/12/02 17:42:12;;;;;;;31.73;13.52;;;;;;;;;;10295059;23;20052;-88
2023/12/02 17:46:19;;;;;;;48.15;15.40;;;;;;;;;;10247448;23;20035;-88
2023/12/02 17:50:25;;;;;;;32.42;13.55;;;;;;;;;;10305429;23;20020;-94
2023/12/02 17:54:44;;;;;;;32.05;12.20;;;;;;;;;;10304035;23;20025;-92
2023/12/02 17:59:22;;;;;;;40.17;14.95;;;;;;;;;;10352628;22;20335;-95
2023/12/02 18:03:43;;;;;;;;;;;;;;;;;;10453262;22;20105;-93
2023/12/02 18:08:02;;;;;;;28.58;11.35;;;;;;;;;;10462486;22;19925;-93
2023/12/02 18:12:07;;;;;;;42.30;15.48;;;;;;;;;;10443217;22;20009;-92
2023/12/02 18:16:13;;;;;;;46.53;16.38;;;;;;;;;;10459924;22;20114;-92
2023/12/02 18:20:28;;;;;;;44.90;15.98;;;;;;;;;;10476280;22;20023;-94
2023/12/02 18:24:41;;;;;;;45.00;15.18;;;;;;;;;;10476607;22;20348;-93
2023/12/02 18:34:29;;;;;;;31.42;9.93;;;;;;;;;;10446129;22;20106;-92
2023/12/02 18:38:35;;;;;;;26.10;10.63;;;;;;;;;;10399375;22;20022;-93
2023/12/02 18:42:51;;;;;;;24.63;11.18;;;;;;;;;;10434326;22;20019;-91
2023/12/02 18:46:54;;;;;;;19.00;8.20;;;;;;;;;;10454462;22;20026;-93
2023/12/02 18:51:00;;;;;;;30.63;10.88;;;;;;;;;;10445536;22;20514;-93
2023/12/02 18:55:08;;;;;;;40.15;14.90;;;;;;;;;;10453841;22;20064;-94
2023/12/02 18:59:13;;;;;;;48.35;18.30;;;;;;;;;;10467646;22;20058;-92
2023/12/02 19:03:24;;;;;;;50.17;17.65;;;;;;;;;;10442663;22;20015;-92
2023/12/02 19:13:19;;;;;;;33.67;14.65;;;;;;;;;;10443152;22;20016;-93
2023/12/02 19:17:27;;;;;;;42.65;15.57;;;;;;;;;;10442121;22;20440;-93
2023/12/02 19:21:31;;;;;;;46.03;15.82;;;;;;;;;;10414221;22;20057;-94
2023/12/02 19:25:46;;;;;;;31.50;13.77;;;;;;;;;;10442997;22;20015;-94
2023/12/02 19:29:54;;;;;;;37.33;12.85;;;;;;;;;;10414754;22;20022;-94
2023/12/02 19:33:58;;;;;;;38.42;15.88;;;;;;;;;;10389554;22;20099;-92
2023/12/02 19:38:04;;;;;;;41.10;14.65;;;;;;;;;;10408221;22;20082;-92
2023/12/02 19:47:15;;;;;;;46.00;14.85;;;;;;;;;;10367524;22;20027;-94
2023/12/02 19:51:22;;;;;;;61.15;17.58;;;;;;;;;;10410232;22;20016;-91
2023/12/02 19:55:25;;;;;;;49.28;15.55;;;;;;;;;;10397240;22;20023;-93
2023/12/02 19:59:29;;;;;;;56.83;21.08;;;;;;;;;;10394526;22;20019;-92
2023/12/02 20:03:44;;;;;;;50.97;17.77;;;;;;;;;;10398637;22;20034;-93
2023/12/02 20:07:50;;;;;;;45.85;15.05;;;;;;;;;;10396273;22;20394;-93
2023/12/02 20:12:09;;;;;;;36.72;15.45;;;;;;;;;;10395160;22;20022;-94
2023/12/02 20:16:27;;;;;;;43.80;17.35;;;;;;;;;;10393489;22;20023;-92
2023/12/02 20:20:42;;;;;;;;;;;;;;;;;;10398921;22;20378;-94
2023/12/02 20:24:48;;;;;;;47.38;16.70;;;;;;;;;;10395169;22;19990;-93
2023/12/02 20:29:03;;;;;;;44.80;16.90;;;;;;;;;;10414751;22;20035;-93
2023/12/02 20:33:09;;;;;;;48.85;17.33;;;;;;;;;;10438443;22;20066;-93
2023/12/02 20:37:16;;;;;;;18.98;8.98;;;;;;;;;;10463253;22;20014;-94
2023/12/02 20:41:23;;;;;;;40.17;14.23;;;;;;;;;;10496066;22;20022;-93
2023/12/02 20:45:31;;;;;;;42.67;15.85;;;;;;;;;;10460474;22;20015;-93
2023/12/02 20:55:02;;;;;;;52.28;17.77;;;;;;;;;;10275370;23;20076;-93
2023/12/02 20:59:10;;;;;;;46.27;17.93;;;;;;;;;;10310214;23;20095;-94
2023/12/02 21:03:14;;;;;;;42.10;15.95;;;;;;;;;;10272055;23;20021;-94
2023/12/02 21:07:25;;;;;;;46.38;16.83;;;;;;;;;;10293054;23;20124;-93
2023/12/02 21:11:29;;;;;;;48.35;16.73;;;;;;;;;;10267129;22;20027;-93
2023/12/02 21:15:33;;;;;;;22.10;9.73;;;;;;;;;;10452059;22;20019;-94
2023/12/02 21:19:40;;;;;;;32.35;13.23;;;;;;;;;;10423155;22;20019;-93
2023/12/02 21:23:44;;;;;;;11.15;5.50;;;;;;;;;;10447906;22;20019;-93
2023/12/02 21:27:52;;;;;;;42.10;16.83;;;;;;;;;;10443058;22;20053;-93
2023/12/02 21:31:55;;;;;;;46.15;17.17;;;;;;;;;;10418117;22;20037;-93
2023/12/02 21:35:59;;;;;;;40.85;15.75;;;;;;;;;;10452130;22;20064;-92
2023/12/02 21:40:03;;;;;;;33.75;12.18;;;;;;;;;;10445113;22;20027;-93
2023/12/02 21:44:08;;;;;;;43.90;17.42;;;;;;;;;;10451721;22;20022;-94
2023/12/02 21:48:30;;;;;;;37.53;14.95;;;;;;;;;;10417736;22;20071;-93
2023/12/02 21:52:34;;;;;;;40.08;12.35;;;;;;;;;;10419393;22;20326;-88
2023/12/02 21:56:42;;;;;;;54.03;18.20;;;;;;;;;;10441198;22;20094;-89
2023/12/02 22:00:47;;;;;;;45.00;15.75;;;;;;;;;;10456615;22;20022;-87
2023/12/02 22:04:51;;;;;;;31.90;15.05;;;;;;;;;;10462557;22;20064;-92
2023/12/02 22:08:56;;;;;;;34.63;14.05;;;;;;;;;;10445091;22;20011;-93
2023/12/02 22:13:01;;;;;;;47.70;16.63;;;;;;;;;;10419190;22;20356;-92
2023/12/02 22:17:07;;;;;;;48.85;18.13;;;;;;;;;;10444049;22;20026;-92
2023/12/02 22:21:13;;;;;;;47.97;17.73;;;;;;;;;;10447849;22;20460;-94
2023/12/02 22:25:17;;;;;;;52.42;16.05;;;;;;;;;;10462864;22;20380;-92
2023/12/02 22:29:28;;;;;;;47.20;15.75;;;;;;;;;;10441259;22;20022;-88
2023/12/02 22:33:35;;;;;;;47.63;17.50;;;;;;;;;;10445469;22;20124;-88
2023/12/02 22:37:39;;;;;;;68.22;20.30;;;;;;;;;;10458815;22;20029;-93
2023/12/02 22:41:42;;;;;;;30.98;11.38;;;;;;;;;;10442884;22;20022;-92
2023/12/02 22:45:45;;;;;;;37.05;14.45;;;;;;;;;;10443218;22;20077;-92
2023/12/02 22:49:50;;;;;;;43.97;15.57;;;;;;;;;;10442973;22;20457;-93
2023/12/02 22:53:55;;;;;;;47.38;15.80;;;;;;;;;;10442841;22;20035;-92
2023/12/02 22:58:04;;;;;;;42.65;14.27;;;;;;;;;;10446054;22;20022;-93
2023/12/02 23:02:10;;;;;;;44.50;13.57;;;;;;;;;;10447038;22;20026;-93
2023/12/02 23:06:15;;;;;;;26.85;11.95;;;;;;;;;;10420630;22;20031;-93
2023/12/02 23:10:35;;;;;;;41.25;13.57;;;;;;;;;;10420560;22;20048;-94
2023/12/02 23:14:42;;;;;;;40.67;13.63;;;;;;;;;;10422038;22;20102;-93
2023/12/02 23:18:45;;;;;;;41.63;13.63;;;;;;;;;;10421898;22;20022;-93
2023/12/02 23:22:51;;;;;;;40.08;12.57;;;;;;;;;;10445368;22;20015;-93
2023/12/02 23:26:55;;;;;;;32.13;11.98;;;;;;;;;;10420943;22;20034;-92
2023/12/02 23:30:58;;;;;;;43.03;13.50;;;;;;;;;;10447390;22;20050;-92
2023/12/02 23:35:02;;;;;;;33.20;11.40;;;;;;;;;;10442997;22;20023;-93
2023/12/02 23:39:28;;;;;;;41.33;13.95;;;;;;;;;;10422096;22;20049;-94
2023/12/02 23:43:35;;;;;;;33.28;11.35;;;;;;;;;;10427411;22;20025;-92
2023/12/02 23:47:39;;;;;;;27.88;8.02;;;;;;;;;;10396922;22;20025;-94
2023/12/02 23:51:42;;;;;;;32.38;12.35;;;;;;;;;;10446772;22;20019;-93
2023/12/02 23:55:47;;;;;;;39.67;13.88;;;;;;;;;;10418778;22;20073;-92
2023/12/02 23:59:51;;;;;;;39.63;13.50;;;;;;;;;;10446456;22;20028;-92
